Stinnett, TX (79083)

7:15 PM CDT on September 21, 2014 (GMT -0500)
Hutchinson County | Change Station
CLOSE
Current Station
Airport
Location: Borger,
Elevation: 3054 ft
Nearby Weather Stations

Elev 3054 ft 35.69 °N, 101.39 °W | Updated 24 minutes ago

Clear
Clear
76 °F
Feels Like 76 °F
N
12
Wind Variable Wind from ENE

Today
High -- | Low -- °F
--% Chance of Precip.
Yesterday
High -- | Low -- °F
Precip. -- in
7:32 AM 7:44 PM
Waning Crescent, 5% visible
Pressure 30.10 in
Visibility 10.0 miles
Clouds Clear
Dew Point 59 °F
Humidity 56%
Rainfall 0.00 in
Snow Depth Not available.
UV 0 out of 12
Pollen 8.40 out of 12
Air Quality Not available.
Flu Activity Not available.
METAR KBGD 212351Z AUTO 06010KT 10SM CLR 24/15 A3021 RMK AO2 SLP192 T02440150 10278 20244 50004

More Conditions Fewer Conditions

Pressure 30.10 in
Visibility 10.0 miles
Clouds Clear
Dew Point 59 °F
Humidity 56%
Rainfall 0.00 in
Snow Depth Not available.
UV 0 out of 12
Pollen 8.40 out of 12
Air Quality Not available.
Flu Activity Not available.
METAR KBGD 212351Z AUTO 06010KT 10SM CLR 24/15 A3021 RMK AO2 SLP192 T02440150 10278 20244 50004

More Conditions Fewer Conditions

10-Day Weather Forecast

Almanac

Astronomy

Sep. 21, 2014 Rise Set
Actual Time 7:32 AM CDT 7:44 PM CDT
Civil Twilight 7:07 AM CDT 8:09 PM CDT
Nautical Twilight 6:37 AM CDT 8:39 PM CDT
Astronomical Twilight 6:07 AM CDT 9:09 PM CDT
Moon 5:12 AM CDT (9/21) 6:18 PM CDT (9/21)
Length of Visible Light 13h 02m
Length of Day
12h 11m
Tomorrow will be 2m 16s shorter.
Waning Crescent, 5% of the Moon is Illuminated
Today
Waning Crescent
Sep 24
New
Oct 1
First Quarter
Oct 8
Full
Oct 15
Last Quarter

Today's Extremes

State Highs State Lows

Community

WunderPhotos

Upload Photos

1,755,310 photos uploaded!

WunderBlogs® & News

Nearby

Snow Depth

Station Depth Elevation
No new snow has been reported.

Earthquake Activity

City Distance Mag. Time & Date
No recent earthquake activity has been reported nearby.
Minimum magnitude displayed is 2.5.

Coastal Water Temperatures

Place Temperature
No Stations Reporting

Nearby Weather Stations